Terminal Aerodrome Forecast
Issued by NWS

Home | Current Version | Previous Version | Text Only | Print | Product List | Glossary On
Versions: 1 2 3 4 5 6 7 8 9 10 11 12 13 14 15 16 17
000
FTUS41 KCAR 272320
TAFPQI
TAF
KPQI 272320Z 2800/2824 VRB03KT 6SM -SHRA OVC050
      TEMPO 2800/2803 3SM +SHRA BKN025 OVC040
     FM280400 VRB03KT 6SM -SHRA OVC030
     FM280700 VRB03KT 3SM -SHRA BR OVC008
     FM281100 VRB03KT P6SM OVC015
     FM281400 26006KT P6SM OVC040=

USA.gov is the U.S. government's official web portal to all federal, state and local government web resources and services.